Rock City, IL

4:42 AM CST on November 21, 2019 (GMT -0600)
3 miles South of Davis, IL | | Change Station

Elev 853 ft 42.37 °N, 89.41 °W | Updated 4 seconds ago

Rain
Rain
44.8 °F
Feels Like 40 °F
N
9
Wind Variable Wind from South
Gusts 17.0 mph

Today
High -- | Low -- °F
--% Chance of Precip.
Yesterday
High -- | Low -- °F
Precip. -- in
Pressure 29.76 in
Visibility 3.0 miles
Clouds Scattered Clouds 1000 ft
Scattered Clouds 2000 ft
Overcast 2600 ft
Windchill 40 °F
Dew Point 44 °F
Humidity 99%
Rainfall 0.39 in
Snow Depth Not available.
6:55 AM 4:31 PM
Waning Crescent, 32% visible
METAR KFEP 211035Z AUTO 19020G24KT 3SM RA SCT010 SCT020 OVC026 07/07 A2976 RMK AO2 P0009 T00710071
Pressure 29.76 in
Visibility 3.0 miles
Clouds Scattered Clouds 1000 ft
Scattered Clouds 2000 ft
Overcast 2600 ft
Windchill 40 °F
Dew Point 44 °F
Humidity 99%
Rainfall 0.39 in
Snow Depth Not available.
6:55 AM 4:31 PM
Waning Crescent, 32% visible
METAR KFEP 211035Z AUTO 19020G24KT 3SM RA SCT010 SCT020 OVC026 07/07 A2976 RMK AO2 P0009 T00710071

Get Severe Weather Alerts

Thanks for signing up!

Be on the lookout for a verification email in your inbox.

You'll start receiving the daily forecast at 6 AM.

×

10-Day Weather Forecast

Almanac

Astronomy

Nov. 21, 2019 Rise Set
Actual Time
Civil Twilight
Nautical Twilight
Astronomical Twilight
Moon
Length of Visible Light
Length of Day
Tomorrow will be .
, % of the Moon is Illuminated

Today's Extremes

State Highs State Lows

Community

WunderPhotos

Category 6

Welcome to Category 6. This is the collective home for Weather Underground's featured writeups by Dr. Jeff Masters (right), Bob Henson (left), Chris Burt, and other regular contributors.

Nearby

Air Quality

  Air Quality AQ Index Pollutant
Not available.

Snow Depth

Station Depth Elevation

Earthquake Activity

City Distance Mag. Time & Date
Minimum magnitude displayed is 2.5.

Coastal Water Temperatures

Place Temperature

Stations

Nearby Weather Stations

Station Location Temp. Windchill Dew Point Humidity Wind Precip. Elev Updated Type
                   

Watches & Warnings

There are currently no watches in effect.